sensor_id;sensor_type;location;lat;lon;timestamp;pressure;altitude;pressure_sealevel;temperature;humidity
74045;BME280;62389;51.412;5.436;2024-01-16T00:00:22;100871.81;;;-0.59;100.00
74045;BME280;62389;51.412;5.436;2024-01-16T00:02:47;100880.38;;;-0.57;100.00
74045;BME280;62389;51.412;5.436;2024-01-16T00:05:13;100885.50;;;-0.57;100.00
74045;BME280;62389;51.412;5.436;2024-01-16T00:07:39;100880.38;;;-0.57;100.00
74045;BME280;62389;51.412;5.436;2024-01-16T00:10:07;100881.22;;;-0.56;100.00
74045;BME280;62389;51.412;5.436;2024-01-16T00:12:32;100875.22;;;-0.57;100.00
74045;BME280;62389;51.412;5.436;2024-01-16T00:14:58;100877.81;;;-0.60;100.00
74045;BME280;62389;51.412;5.436;2024-01-16T00:17:23;100876.94;;;-0.62;100.00
74045;BME280;62389;51.412;5.436;2024-01-16T00:19:49;100876.94;;;-0.62;100.00
74045;BME280;62389;51.412;5.436;2024-01-16T00:22:14;100876.97;;;-0.60;100.00
74045;BME280;62389;51.412;5.436;2024-01-16T00:24:39;100880.38;;;-0.60;100.00
74045;BME280;62389;51.412;5.436;2024-01-16T00:27:05;100877.81;;;-0.57;100.00
74045;BME280;62389;51.412;5.436;2024-01-16T00:29:30;100881.25;;;-0.55;100.00
74045;BME280;62389;51.412;5.436;2024-01-16T00:31:56;100882.97;;;-0.54;100.00
74045;BME280;62389;51.412;5.436;2024-01-16T00:34:21;100890.66;;;-0.50;100.00
74045;BME280;62389;51.412;5.436;2024-01-16T00:36:47;100887.25;;;-0.53;100.00
74045;BME280;62389;51.412;5.436;2024-01-16T00:39:12;100888.94;;;-0.52;100.00
74045;BME280;62389;51.412;5.436;2024-01-16T00:41:38;100891.53;;;-0.52;100.00
74045;BME280;62389;51.412;5.436;2024-01-16T00:44:04;100887.25;;;-0.53;100.00
74045;BME280;62389;51.412;5.436;2024-01-16T00:46:30;100888.94;;;-0.52;100.00
74045;BME280;62389;51.412;5.436;2024-01-16T00:48:55;100882.97;;;-0.49;100.00
74045;BME280;62389;51.412;5.436;2024-01-16T00:51:21;100888.97;;;-0.47;100.00
74045;BME280;62389;51.412;5.436;2024-01-16T00:53:46;100886.38;;;-0.47;100.00
74045;BME280;62389;51.412;5.436;2024-01-16T00:56:12;100882.97;;;-0.47;100.00
74045;BME280;62389;51.412;5.436;2024-01-16T00:58:38;100882.97;;;-0.47;100.00
74045;BME280;62389;51.412;5.436;2024-01-16T01:01:03;100893.25;;;-0.46;100.00
74045;BME280;62389;51.412;5.436;2024-01-16T01:03:29;100887.25;;;-0.46;100.00
74045;BME280;62389;51.412;5.436;2024-01-16T01:05:55;100890.69;;;-0.44;100.00
74045;BME280;62389;51.412;5.436;2024-01-16T01:08:20;100890.69;;;-0.43;100.00
74045;BME280;62389;51.412;5.436;2024-01-16T01:10:46;100882.97;;;-0.43;100.00
74045;BME280;62389;51.412;5.436;2024-01-16T01:13:12;100883.84;;;-0.42;100.00
74045;BME280;62389;51.412;5.436;2024-01-16T01:15:37;100882.13;;;-0.43;100.00
74045;BME280;62389;51.412;5.436;2024-01-16T01:18:03;100889.84;;;-0.43;100.00
74045;BME280;62389;51.412;5.436;2024-01-16T01:20:29;100897.53;;;-0.42;100.00
74045;BME280;62389;51.412;5.436;2024-01-16T01:22:54;100894.13;;;-0.42;100.00
74045;BME280;62389;51.412;5.436;2024-01-16T01:25:20;100895.81;;;-0.41;100.00
74045;BME280;62389;51.412;5.436;2024-01-16T01:27:46;100892.38;;;-0.40;100.00
74045;BME280;62389;51.412;5.436;2024-01-16T01:30:11;100899.25;;;-0.42;100.00
74045;BME280;62389;51.412;5.436;2024-01-16T01:32:37;100890.69;;;-0.41;100.00
74045;BME280;62389;51.412;5.436;2024-01-16T01:35:03;100902.66;;;-0.40;100.00
74045;BME280;62389;51.412;5.436;2024-01-16T01:37:28;100894.13;;;-0.42;100.00
74045;BME280;62389;51.412;5.436;2024-01-16T01:39:54;100893.25;;;-0.44;100.00
74045;BME280;62389;51.412;5.436;2024-01-16T01:42:19;100900.97;;;-0.44;100.00
74045;BME280;62389;51.412;5.436;2024-01-16T01:44:44;100897.53;;;-0.43;100.00
74045;BME280;62389;51.412;5.436;2024-01-16T01:47:10;100902.69;;;-0.43;100.00
74045;BME280;62389;51.412;5.436;2024-01-16T01:49:36;100899.22;;;-0.45;100.00
74045;BME280;62389;51.412;5.436;2024-01-16T01:52:03;100897.53;;;-0.46;100.00
74045;BME280;62389;51.412;5.436;2024-01-16T01:54:31;100907.81;;;-0.46;100.00
74045;BME280;62389;51.412;5.436;2024-01-16T01:56:57;100899.25;;;-0.48;100.00
74045;BME280;62389;51.412;5.436;2024-01-16T01:59:23;100895.81;;;-0.47;100.00
74045;BME280;62389;51.412;5.436;2024-01-16T02:01:50;100901.81;;;-0.45;100.00
74045;BME280;62389;51.412;5.436;2024-01-16T02:04:19;100906.13;;;-0.44;100.00
74045;BME280;62389;51.412;5.436;2024-01-16T02:06:45;100904.38;;;-0.45;100.00
74045;BME280;62389;51.412;5.436;2024-01-16T02:09:11;100902.66;;;-0.48;100.00
74045;BME280;62389;51.412;5.436;2024-01-16T02:11:38;100902.66;;;-0.46;100.00
74045;BME280;62389;51.412;5.436;2024-01-16T02:14:03;100906.09;;;-0.47;100.00
74045;BME280;62389;51.412;5.436;2024-01-16T02:16:38;100909.53;;;-0.50;100.00
74045;BME280;62389;51.412;5.436;2024-01-16T02:19:04;100919.81;;;-0.48;100.00
74045;BME280;62389;51.412;5.436;2024-01-16T02:21:36;100912.94;;;-0.48;100.00
74045;BME280;62389;51.412;5.436;2024-01-16T02:24:03;100915.50;;;-0.46;100.00
74045;BME280;62389;51.412;5.436;2024-01-16T02:26:30;100918.09;;;-0.46;100.00
74045;BME280;62389;51.412;5.436;2024-01-16T02:28:56;100923.22;;;-0.46;100.00
74045;BME280;62389;51.412;5.436;2024-01-16T02:31:21;100932.66;;;-0.47;100.00
74045;BME280;62389;51.412;5.436;2024-01-16T02:33:46;100928.34;;;-0.53;100.00
74045;BME280;62389;51.412;5.436;2024-01-16T02:36:12;100932.63;;;-0.59;100.00
74045;BME280;62389;51.412;5.436;2024-01-16T02:38:37;100922.31;;;-0.64;100.00
74045;BME280;62389;51.412;5.436;2024-01-16T02:41:03;100928.28;;;-0.66;100.00
74045;BME280;62389;51.412;5.436;2024-01-16T02:43:29;100918.00;;;-0.66;100.00
74045;BME280;62389;51.412;5.436;2024-01-16T02:45:54;100920.59;;;-0.68;100.00
74045;BME280;62389;51.412;5.436;2024-01-16T02:48:20;100923.16;;;-0.68;100.00
74045;BME280;62389;51.412;5.436;2024-01-16T02:50:45;100920.59;;;-0.69;100.00
74045;BME280;62389;51.412;5.436;2024-01-16T02:53:11;100921.44;;;-0.69;100.00
74045;BME280;62389;51.412;5.436;2024-01-16T02:55:36;100909.47;;;-0.67;100.00
74045;BME280;62389;51.412;5.436;2024-01-16T02:58:02;100916.31;;;-0.66;100.00
74045;BME280;62389;51.412;5.436;2024-01-16T03:00:28;100915.47;;;-0.63;100.00
74045;BME280;62389;51.412;5.436;2024-01-16T03:02:54;100917.19;;;-0.59;100.00
74045;BME280;62389;51.412;5.436;2024-01-16T03:05:19;100918.91;;;-0.58;100.00
74045;BME280;62389;51.412;5.436;2024-01-16T03:07:45;100916.34;;;-0.57;100.00
74045;BME280;62389;51.412;5.436;2024-01-16T03:10:10;100910.38;;;-0.54;100.00
74045;BME280;62389;51.412;5.436;2024-01-16T03:12:36;100911.22;;;-0.54;100.00
74045;BME280;62389;51.412;5.436;2024-01-16T03:15:02;100912.06;;;-0.56;100.00
74045;BME280;62389;51.412;5.436;2024-01-16T03:17:28;100912.91;;;-0.57;100.00
74045;BME280;62389;51.412;5.436;2024-01-16T03:19:53;100906.06;;;-0.57;100.00
74045;BME280;62389;51.412;5.436;2024-01-16T03:22:18;100919.75;;;-0.58;100.00
74045;BME280;62389;51.412;5.436;2024-01-16T03:24:44;100907.78;;;-0.59;100.00
74045;BME280;62389;51.412;5.436;2024-01-16T03:27:09;100913.78;;;-0.58;100.00
74045;BME280;62389;51.412;5.436;2024-01-16T03:29:35;100906.91;;;-0.61;100.00
74045;BME280;62389;51.412;5.436;2024-01-16T03:32:01;100901.78;;;-0.62;100.00
74045;BME280;62389;51.412;5.436;2024-01-16T03:34:26;100900.06;;;-0.62;100.00
74045;BME280;62389;51.412;5.436;2024-01-16T03:36:52;100900.91;;;-0.63;100.00
74045;BME280;62389;51.412;5.436;2024-01-16T03:39:17;100896.63;;;-0.64;100.00
74045;BME280;62389;51.412;5.436;2024-01-16T03:41:43;100902.63;;;-0.65;100.00
74045;BME280;62389;51.412;5.436;2024-01-16T03:44:09;100899.19;;;-0.67;100.00
74045;BME280;62389;51.412;5.436;2024-01-16T03:46:34;100895.75;;;-0.67;100.00
74045;BME280;62389;51.412;5.436;2024-01-16T03:49:00;100889.75;;;-0.71;100.00
74045;BME280;62389;51.412;5.436;2024-01-16T03:51:25;100888.91;;;-0.73;100.00
74045;BME280;62389;51.412;5.436;2024-01-16T03:53:51;100885.47;;;-0.75;100.00
74045;BME280;62389;51.412;5.436;2024-01-16T03:56:16;100888.03;;;-0.78;100.00
74045;BME280;62389;51.412;5.436;2024-01-16T03:58:41;100884.59;;;-0.80;100.00
74045;BME280;62389;51.412;5.436;2024-01-16T04:01:08;100883.72;;;-0.84;100.00
74045;BME280;62389;51.412;5.436;2024-01-16T04:03:33;100877.72;;;-0.86;100.00
74045;BME280;62389;51.412;5.436;2024-01-16T04:06:00;100876.00;;;-0.87;100.00
74045;BME280;62389;51.412;5.436;2024-01-16T04:08:25;100880.28;;;-0.87;100.00
74045;BME280;62389;51.412;5.436;2024-01-16T04:10:51;100876.00;;;-0.88;100.00
74045;BME280;62389;51.412;5.436;2024-01-16T04:13:16;100868.28;;;-0.91;100.00
74045;BME280;62389;51.412;5.436;2024-01-16T04:15:41;100871.69;;;-0.92;100.00
74045;BME280;62389;51.412;5.436;2024-01-16T04:18:07;100862.28;;;-0.98;100.00
74045;BME280;62389;51.412;5.436;2024-01-16T04:20:33;100864.84;;;-0.99;100.00
74045;BME280;62389;51.412;5.436;2024-01-16T04:22:58;100863.09;;;-1.00;100.00
74045;BME280;62389;51.412;5.436;2024-01-16T04:25:23;100847.69;;;-1.00;100.00
74045;BME280;62389;51.412;5.436;2024-01-16T04:27:49;100846.84;;;-1.01;100.00
74045;BME280;62389;51.412;5.436;2024-01-16T04:30:15;100852.84;;;-1.00;100.00
74045;BME280;62389;51.412;5.436;2024-01-16T04:32:40;100856.25;;;-1.01;100.00
74045;BME280;62389;51.412;5.436;2024-01-16T04:35:05;100863.97;;;-1.03;100.00
74045;BME280;62389;51.412;5.436;2024-01-16T04:37:31;100851.13;;;-1.05;100.00
74045;BME280;62389;51.412;5.436;2024-01-16T04:39:56;100853.66;;;-1.06;100.00
74045;BME280;62389;51.412;5.436;2024-01-16T04:42:23;100853.69;;;-1.05;100.00
74045;BME280;62389;51.412;5.436;2024-01-16T04:44:48;100861.41;;;-1.05;100.00
74045;BME280;62389;51.412;5.436;2024-01-16T04:47:14;100857.09;;;-1.06;100.00
74045;BME280;62389;51.412;5.436;2024-01-16T04:49:41;100849.41;;;-1.09;100.00
74045;BME280;62389;51.412;5.436;2024-01-16T04:52:07;100850.25;;;-1.08;100.00
74045;BME280;62389;51.412;5.436;2024-01-16T04:54:32;100854.53;;;-1.09;100.00
74045;BME280;62389;51.412;5.436;2024-01-16T04:56:58;100857.97;;;-1.10;100.00
74045;BME280;62389;51.412;5.436;2024-01-16T04:59:23;100858.78;;;-1.12;100.00
74045;BME280;62389;51.412;5.436;2024-01-16T05:01:48;100863.06;;;-1.13;100.00
74045;BME280;62389;51.412;5.436;2024-01-16T05:04:14;100863.06;;;-1.13;100.00
74045;BME280;62389;51.412;5.436;2024-01-16T05:06:39;100845.09;;;-1.14;100.00
74045;BME280;62389;51.412;5.436;2024-01-16T05:09:04;100852.78;;;-1.16;100.00
74045;BME280;62389;51.412;5.436;2024-01-16T05:11:30;100850.19;;;-1.16;100.00
74045;BME280;62389;51.412;5.436;2024-01-16T05:13:55;100843.38;;;-1.15;100.00
74045;BME280;62389;51.412;5.436;2024-01-16T05:16:26;100836.53;;;-1.18;100.00
74045;BME280;62389;51.412;5.436;2024-01-16T05:18:52;100840.78;;;-1.18;100.00
74045;BME280;62389;51.412;5.436;2024-01-16T05:21:18;100832.22;;;-1.22;100.00
74045;BME280;62389;51.412;5.436;2024-01-16T05:23:43;100841.63;;;-1.22;100.00
74045;BME280;62389;51.412;5.436;2024-01-16T05:26:09;100840.78;;;-1.24;100.00
74045;BME280;62389;51.412;5.436;2024-01-16T05:28:34;100839.03;;;-1.27;100.00
74045;BME280;62389;51.412;5.436;2024-01-16T05:31:00;100837.34;;;-1.28;100.00
74045;BME280;62389;51.412;5.436;2024-01-16T05:33:25;100843.31;;;-1.29;100.00
74045;BME280;62389;51.412;5.436;2024-01-16T05:35:50;100839.91;;;-1.29;100.00
74045;BME280;62389;51.412;5.436;2024-01-16T05:38:16;100839.03;;;-1.30;100.00
74045;BME280;62389;51.412;5.436;2024-01-16T05:40:41;100842.44;;;-1.34;100.00
74045;BME280;62389;51.412;5.436;2024-01-16T05:43:07;100843.28;;;-1.35;100.00
74045;BME280;62389;51.412;5.436;2024-01-16T05:45:32;100842.41;;;-1.37;100.00
74045;BME280;62389;51.412;5.436;2024-01-16T05:47:58;100839.84;;;-1.39;100.00
74045;BME280;62389;51.412;5.436;2024-01-16T05:50:23;100847.53;;;-1.43;100.00
74045;BME280;62389;51.412;5.436;2024-01-16T05:52:48;100850.91;;;-1.46;100.00
74045;BME280;62389;51.412;5.436;2024-01-16T05:55:14;100842.34;;;-1.46;100.00
74045;BME280;62389;51.412;5.436;2024-01-16T05:57:39;100838.94;;;-1.47;100.00
74045;BME280;62389;51.412;5.436;2024-01-16T06:00:05;100839.78;;;-1.49;100.00
74045;BME280;62389;51.412;5.436;2024-01-16T06:02:31;100838.06;;;-1.52;100.00
74045;BME280;62389;51.412;5.436;2024-01-16T06:04:57;100835.50;;;-1.55;100.00
74045;BME280;62389;51.412;5.436;2024-01-16T06:07:22;100827.81;;;-1.55;100.00
74045;BME280;62389;51.412;5.436;2024-01-16T06:09:48;100832.06;;;-1.55;100.00
74045;BME280;62389;51.412;5.436;2024-01-16T06:12:13;100828.63;;;-1.61;100.00
74045;BME280;62389;51.412;5.436;2024-01-16T06:14:39;100826.88;;;-1.65;100.00
74045;BME280;62389;51.412;5.436;2024-01-16T06:17:04;100837.13;;;-1.68;100.00
74045;BME280;62389;51.412;5.436;2024-01-16T06:19:33;100831.97;;;-1.68;100.00
74045;BME280;62389;51.412;5.436;2024-01-16T06:21:59;100828.56;;;-1.67;100.00
74045;BME280;62389;51.412;5.436;2024-01-16T06:24:25;100831.94;;;-1.71;100.00
74045;BME280;62389;51.412;5.436;2024-01-16T06:26:50;100829.38;;;-1.72;100.00
74045;BME280;62389;51.412;5.436;2024-01-16T06:29:16;100824.25;;;-1.75;100.00
74045;BME280;62389;51.412;5.436;2024-01-16T06:31:41;100829.34;;;-1.77;100.00
74045;BME280;62389;51.412;5.436;2024-01-16T06:34:06;100832.78;;;-1.76;100.00
74045;BME280;62389;51.412;5.436;2024-01-16T06:36:32;100826.78;;;-1.80;100.00
74045;BME280;62389;51.412;5.436;2024-01-16T06:38:58;100835.31;;;-1.81;100.00
74045;BME280;62389;51.412;5.436;2024-01-16T06:41:23;100822.47;;;-1.83;100.00
74045;BME280;62389;51.412;5.436;2024-01-16T06:43:48;100828.47;;;-1.85;100.00
74045;BME280;62389;51.412;5.436;2024-01-16T06:46:14;100831.00;;;-1.88;100.00
74045;BME280;62389;51.412;5.436;2024-01-16T06:48:39;100821.59;;;-1.89;100.00
74045;BME280;62389;51.412;5.436;2024-01-16T06:51:05;100823.31;;;-1.88;100.00
74045;BME280;62389;51.412;5.436;2024-01-16T06:53:30;100831.03;;;-1.85;100.00
74045;BME280;62389;51.412;5.436;2024-01-16T06:55:56;100838.72;;;-1.85;100.00
74045;BME280;62389;51.412;5.436;2024-01-16T06:58:21;100836.13;;;-1.88;100.00
74045;BME280;62389;51.412;5.436;2024-01-16T07:00:47;100842.97;;;-1.90;100.00
74045;BME280;62389;51.412;5.436;2024-01-16T07:03:13;100845.53;;;-1.90;100.00
74045;BME280;62389;51.412;5.436;2024-01-16T07:05:39;100845.53;;;-1.90;100.00
74045;BME280;62389;51.412;5.436;2024-01-16T07:08:06;100851.47;;;-1.93;100.00
74045;BME280;62389;51.412;5.436;2024-01-16T07:10:31;100853.19;;;-1.92;100.00
74045;BME280;62389;51.412;5.436;2024-01-16T07:12:57;100855.75;;;-1.93;100.00
74045;BME280;62389;51.412;5.436;2024-01-16T07:15:22;100851.47;;;-1.93;100.00
74045;BME280;62389;51.412;5.436;2024-01-16T07:17:47;100845.44;;;-1.96;100.00
74045;BME280;62389;51.412;5.436;2024-01-16T07:20:13;100843.78;;;-1.96;100.00
74045;BME280;62389;51.412;5.436;2024-01-16T07:22:38;100853.13;;;-1.96;100.00
74045;BME280;62389;51.412;5.436;2024-01-16T07:25:07;100859.13;;;-1.97;100.00
74045;BME280;62389;51.412;5.436;2024-01-16T07:27:33;100860.88;;;-1.95;100.00
74045;BME280;62389;51.412;5.436;2024-01-16T07:29:59;100863.41;;;-1.96;100.00
74045;BME280;62389;51.412;5.436;2024-01-16T07:32:24;100866.78;;;-2.02;100.00
74045;BME280;62389;51.412;5.436;2024-01-16T07:34:49;100859.94;;;-2.01;100.00
74045;BME280;62389;51.412;5.436;2024-01-16T07:37:16;100858.25;;;-1.98;100.00
74045;BME280;62389;51.412;5.436;2024-01-16T07:39:43;100857.41;;;-1.98;100.00
74045;BME280;62389;51.412;5.436;2024-01-16T07:42:08;100855.69;;;-1.99;100.00
74045;BME280;62389;51.412;5.436;2024-01-16T07:44:33;100858.25;;;-1.98;100.00
74045;BME280;62389;51.412;5.436;2024-01-16T07:46:59;100853.13;;;-1.96;100.00
74045;BME280;62389;51.412;5.436;2024-01-16T07:49:24;100856.59;;;-1.94;100.00
74045;BME280;62389;51.412;5.436;2024-01-16T07:51:50;100854.03;;;-1.96;100.00
74045;BME280;62389;51.412;5.436;2024-01-16T07:54:15;100864.28;;;-1.94;100.00
74045;BME280;62389;51.412;5.436;2024-01-16T07:56:40;100874.53;;;-1.94;100.00
74045;BME280;62389;51.412;5.436;2024-01-16T07:59:06;100871.97;;;-1.94;100.00
74045;BME280;62389;51.412;5.436;2024-01-16T08:01:32;100879.66;;;-1.94;100.00
74045;BME280;62389;51.412;5.436;2024-01-16T08:03:58;100883.09;;;-1.92;100.00
74045;BME280;62389;51.412;5.436;2024-01-16T08:06:23;100885.66;;;-1.92;100.00
74045;BME280;62389;51.412;5.436;2024-01-16T08:08:49;100883.94;;;-1.92;100.00
74045;BME280;62389;51.412;5.436;2024-01-16T08:11:15;100880.56;;;-1.91;100.00
74045;BME280;62389;51.412;5.436;2024-01-16T08:13:41;100883.13;;;-1.88;100.00
74045;BME280;62389;51.412;5.436;2024-01-16T08:16:07;100879.75;;;-1.85;100.00
74045;BME280;62389;51.412;5.436;2024-01-16T08:18:33;100871.19;;;-1.84;100.00
74045;BME280;62389;51.412;5.436;2024-01-16T08:20:58;100867.78;;;-1.82;100.00
74045;BME280;62389;51.412;5.436;2024-01-16T08:23:23;100874.66;;;-1.79;100.00
74045;BME280;62389;51.412;5.436;2024-01-16T08:25:49;100886.63;;;-1.79;100.00
74045;BME280;62389;51.412;5.436;2024-01-16T08:28:17;100884.88;;;-1.82;100.00
74045;BME280;62389;51.412;5.436;2024-01-16T08:30:42;100893.41;;;-1.83;100.00
74045;BME280;62389;51.412;5.436;2024-01-16T08:33:07;100905.38;;;-1.82;100.00
74045;BME280;62389;51.412;5.436;2024-01-16T08:35:33;100895.13;;;-1.82;100.00
74045;BME280;62389;51.412;5.436;2024-01-16T08:37:58;100900.28;;;-1.79;100.00
74045;BME280;62389;51.412;5.436;2024-01-16T08:40:24;100900.28;;;-1.80;100.00
74045;BME280;62389;51.412;5.436;2024-01-16T08:42:49;100894.31;;;-1.79;100.00
74045;BME280;62389;51.412;5.436;2024-01-16T08:45:20;100892.59;;;-1.79;100.00
74045;BME280;62389;51.412;5.436;2024-01-16T08:47:45;100896.91;;;-1.75;100.00
74045;BME280;62389;51.412;5.436;2024-01-16T08:50:10;100891.78;;;-1.72;100.00
74045;BME280;62389;51.412;5.436;2024-01-16T08:52:36;100890.94;;;-1.71;100.00
74045;BME280;62389;51.412;5.436;2024-01-16T08:55:02;100888.41;;;-1.68;100.00
74045;BME280;62389;51.412;5.436;2024-01-16T08:57:27;100892.72;;;-1.65;100.00
74045;BME280;62389;51.412;5.436;2024-01-16T08:59:52;100886.72;;;-1.63;100.00
74045;BME280;62389;51.412;5.436;2024-01-16T09:02:18;100882.44;;;-1.62;100.00
74045;BME280;62389;51.412;5.436;2024-01-16T09:04:43;100882.44;;;-1.64;100.00
74045;BME280;62389;51.412;5.436;2024-01-16T09:07:09;100882.44;;;-1.62;100.00
74045;BME280;62389;51.412;5.436;2024-01-16T09:09:34;100883.31;;;-1.63;100.00
74045;BME280;62389;51.412;5.436;2024-01-16T09:11:59;100885.91;;;-1.60;100.00
74045;BME280;62389;51.412;5.436;2024-01-16T09:14:25;100891.88;;;-1.60;100.00
74045;BME280;62389;51.412;5.436;2024-01-16T09:16:50;100891.91;;;-1.57;100.00
74045;BME280;62389;51.412;5.436;2024-01-16T09:19:16;100887.66;;;-1.53;100.00
74045;BME280;62389;51.412;5.436;2024-01-16T09:21:41;100891.09;;;-1.49;100.00
74045;BME280;62389;51.412;5.436;2024-01-16T09:24:07;100883.38;;;-1.52;100.00
74045;BME280;62389;51.412;5.436;2024-01-16T09:26:32;100887.69;;;-1.50;100.00
74045;BME280;62389;51.412;5.436;2024-01-16T09:28:58;100879.97;;;-1.48;100.00
74045;BME280;62389;51.412;5.436;2024-01-16T09:31:23;100879.16;;;-1.43;100.00
74045;BME280;62389;51.412;5.436;2024-01-16T09:33:49;100872.31;;;-1.42;100.00
74045;BME280;62389;51.412;5.436;2024-01-16T09:36:15;100879.19;;;-1.38;100.00
74045;BME280;62389;51.412;5.436;2024-01-16T09:38:40;100873.19;;;-1.40;100.00
74045;BME280;62389;51.412;5.436;2024-01-16T09:41:06;100876.66;;;-1.35;100.00
74045;BME280;62389;51.412;5.436;2024-01-16T09:43:32;100866.41;;;-1.29;100.00
74045;BME280;62389;51.412;5.436;2024-01-16T09:46:00;100864.72;;;-1.24;100.00
74045;BME280;62389;51.412;5.436;2024-01-16T09:48:28;100866.47;;;-1.17;100.00
74045;BME280;62389;51.412;5.436;2024-01-16T09:50:55;100871.66;;;-1.09;100.00
74045;BME280;62389;51.412;5.436;2024-01-16T09:53:20;100864.81;;;-1.04;100.00
74045;BME280;62389;51.412;5.436;2024-01-16T09:55:48;100861.38;;;-1.01;100.00
74045;BME280;62389;51.412;5.436;2024-01-16T09:58:14;100874.25;;;-0.97;100.00
74045;BME280;62389;51.412;5.436;2024-01-16T10:00:43;100863.97;;;-0.97;100.00
74045;BME280;62389;51.412;5.436;2024-01-16T10:03:11;100861.44;;;-0.92;100.00
74045;BME280;62389;51.412;5.436;2024-01-16T10:05:42;100858.00;;;-0.91;100.00
74045;BME280;62389;51.412;5.436;2024-01-16T10:08:07;100857.16;;;-0.86;100.00
74045;BME280;62389;51.412;5.436;2024-01-16T10:10:33;100853.75;;;-0.82;100.00
74045;BME280;62389;51.412;5.436;2024-01-16T10:12:59;100850.34;;;-0.81;100.00
74045;BME280;62389;51.412;5.436;2024-01-16T10:15:25;100842.66;;;-0.79;100.00
74045;BME280;62389;51.412;5.436;2024-01-16T10:17:50;100845.22;;;-0.79;100.00
74045;BME280;62389;51.412;5.436;2024-01-16T10:20:16;100846.94;;;-0.76;100.00
74045;BME280;62389;51.412;5.436;2024-01-16T10:22:56;100843.53;;;-0.68;100.00
74045;BME280;62389;51.412;5.436;2024-01-16T10:25:23;100849.53;;;-0.63;100.00
74045;BME280;62389;51.412;5.436;2024-01-16T10:27:49;100846.13;;;-0.59;100.00
74045;BME280;62389;51.412;5.436;2024-01-16T10:30:14;100840.13;;;-0.53;100.00
74045;BME280;62389;51.412;5.436;2024-01-16T10:32:41;100835.00;;;-0.52;100.00
74045;BME280;62389;51.412;5.436;2024-01-16T10:35:11;100828.13;;;-0.51;100.00
74045;BME280;62389;51.412;5.436;2024-01-16T10:38:03;100820.44;;;-0.49;100.00
74045;BME280;62389;51.412;5.436;2024-01-16T10:40:28;100822.16;;;-0.47;100.00
74045;BME280;62389;51.412;5.436;2024-01-16T10:43:01;100810.16;;;-0.36;100.00
74045;BME280;62389;51.412;5.436;2024-01-16T10:45:27;100818.75;;;-0.29;100.00
74045;BME280;62389;51.412;5.436;2024-01-16T10:48:03;100818.75;;;-0.24;100.00
74045;BME280;62389;51.412;5.436;2024-01-16T10:50:29;100817.03;;;-0.22;100.00
74045;BME280;62389;51.412;5.436;2024-01-16T10:52:55;100834.16;;;-0.17;100.00
74045;BME280;62389;51.412;5.436;2024-01-16T10:55:24;100834.16;;;-0.17;100.00
74045;BME280;62389;51.412;5.436;2024-01-16T10:57:50;100817.88;;;-0.16;100.00
74045;BME280;62389;51.412;5.436;2024-01-16T11:00:22;100803.31;;;-0.11;100.00
74045;BME280;62389;51.412;5.436;2024-01-16T11:03:01;100805.88;;;-0.11;100.00
74045;BME280;62389;51.412;5.436;2024-01-16T11:05:31;100810.19;;;-0.04;100.00
74045;BME280;62389;51.412;5.436;2024-01-16T11:07:58;100806.72;;;0.04;100.00
74045;BME280;62389;51.412;5.436;2024-01-16T11:10:27;100803.31;;;0.11;100.00
74045;BME280;62389;51.412;5.436;2024-01-16T11:12:52;100805.84;;;0.21;100.00
74045;BME280;62389;51.412;5.436;2024-01-16T11:15:18;100800.69;;;0.34;100.00
74045;BME280;62389;51.412;5.436;2024-01-16T11:17:44;100796.34;;;0.56;100.00
74045;BME280;62389;51.412;5.436;2024-01-16T11:20:11;100787.53;;;1.06;100.00
74045;BME280;62389;51.412;5.436;2024-01-16T11:22:40;100788.56;;;1.98;100.00
74045;BME280;62389;51.412;5.436;2024-01-16T11:25:14;100783.78;;;3.13;100.00
74045;BME280;62389;51.412;5.436;2024-01-16T11:27:41;100794.34;;;3.56;92.53
74045;BME280;62389;51.412;5.436;2024-01-16T11:30:09;100785.81;;;3.49;94.90
74045;BME280;62389;51.412;5.436;2024-01-16T11:32:40;100789.56;;;3.30;96.51
74045;BME280;62389;51.412;5.436;2024-01-16T11:35:09;100800.09;;;3.18;92.89
74045;BME280;62389;51.412;5.436;2024-01-16T11:37:39;100793.34;;;3.07;97.14
74045;BME280;62389;51.412;5.436;2024-01-16T11:42:47;100783.34;;;2.80;96.10
74045;BME280;62389;51.412;5.436;2024-01-16T11:48:13;100780.97;;;2.65;98.54
74045;BME280;62389;51.412;5.436;2024-01-16T11:50:39;100790.34;;;2.72;95.30
74045;BME280;62389;51.412;5.436;2024-01-16T11:53:05;100774.06;;;2.65;93.46
74045;BME280;62389;51.412;5.436;2024-01-16T11:55:32;100780.06;;;2.69;95.74
74045;BME280;62389;51.412;5.436;2024-01-16T12:00:32;100764.50;;;2.73;93.82
74045;BME280;62389;51.412;5.436;2024-01-16T12:03:02;100756.59;;;2.84;90.59
74045;BME280;62389;51.412;5.436;2024-01-16T12:05:28;100761.31;;;3.18;92.97
74045;BME280;62389;51.412;5.436;2024-01-16T12:07:54;100758.50;;;3.85;92.42
74045;BME280;62389;51.412;5.436;2024-01-16T12:10:21;100748.00;;;4.81;90.17
74045;BME280;62389;51.412;5.436;2024-01-16T12:12:48;100753.22;;;5.57;84.79
74045;BME280;62389;51.412;5.436;2024-01-16T12:15:22;100755.44;;;5.71;78.92
74045;BME280;62389;51.412;5.436;2024-01-16T12:18:06;100746.06;;;6.34;80.44
74045;BME280;62389;51.412;5.436;2024-01-16T12:20:34;100733.19;;;7.44;78.21
74045;BME280;62389;51.412;5.436;2024-01-16T12:23:06;100722.69;;;8.47;72.54
74045;BME280;62389;51.412;5.436;2024-01-16T12:25:37;100716.19;;;8.59;67.30
74045;BME280;62389;51.412;5.436;2024-01-16T12:28:05;100718.00;;;8.09;65.74
74045;BME280;62389;51.412;5.436;2024-01-16T12:30:33;100718.84;;;7.58;64.75
74045;BME280;62389;51.412;5.436;2024-01-16T12:33:10;100721.53;;;6.73;68.62
74045;BME280;62389;51.412;5.436;2024-01-16T12:35:44;100723.34;;;6.40;71.59
74045;BME280;62389;51.412;5.436;2024-01-16T12:38:11;100721.94;;;6.29;75.30
74045;BME280;62389;51.412;5.436;2024-01-16T12:40:49;100714.66;;;6.10;74.54
74045;BME280;62389;51.412;5.436;2024-01-16T12:43:18;100712.03;;;5.78;71.00
74045;BME280;62389;51.412;5.436;2024-01-16T12:45:44;100716.00;;;5.91;72.77